sensor_id;sensor_type;location;lat;lon;timestamp;P1;durP1;ratioP1;P2;durP2;ratioP2
67090;SDS011;54007;55.818;49.058;2023-02-03T09:57:54;37.15;;;12.80;;
67090;SDS011;54007;55.818;49.058;2023-02-03T10:00:26;31.42;;;11.25;;
67090;SDS011;54007;55.818;49.058;2023-02-03T10:02:55;32.30;;;11.50;;
67090;SDS011;54007;55.818;49.058;2023-02-03T10:07:56;31.35;;;10.70;;
67090;SDS011;54007;55.818;49.058;2023-02-03T10:11:04;36.63;;;11.97;;
67090;SDS011;54007;55.818;49.058;2023-02-03T10:18:06;39.15;;;15.35;;
67090;SDS011;54007;55.818;49.058;2023-02-03T10:20:35;37.00;;;13.07;;
67090;SDS011;54007;55.818;49.058;2023-02-03T10:23:23;31.75;;;13.72;;
67090;SDS011;54007;55.818;49.058;2023-02-03T10:25:29;35.78;;;12.65;;
67090;SDS011;54007;55.818;49.058;2023-02-03T10:27:54;30.13;;;10.53;;
67090;SDS011;54007;55.818;49.058;2023-02-03T10:30:21;38.33;;;13.40;;
67090;SDS011;54007;55.818;49.058;2023-02-03T10:32:48;35.78;;;13.90;;
67090;SDS011;54007;55.818;49.058;2023-02-03T10:35:12;28.47;;;11.43;;
67090;SDS011;54007;55.818;49.058;2023-02-03T10:37:40;33.00;;;13.35;;
67090;SDS011;54007;55.818;49.058;2023-02-03T10:40:04;32.10;;;12.20;;
67090;SDS011;54007;55.818;49.058;2023-02-03T10:42:29;34.15;;;12.25;;
67090;SDS011;54007;55.818;49.058;2023-02-03T10:45:14;30.65;;;11.53;;
67090;SDS011;54007;55.818;49.058;2023-02-03T10:47:45;35.68;;;12.78;;
67090;SDS011;54007;55.818;49.058;2023-02-03T10:50:15;33.90;;;13.30;;
67090;SDS011;54007;55.818;49.058;2023-02-03T10:52:40;43.35;;;14.33;;
67090;SDS011;54007;55.818;49.058;2023-02-03T10:55:07;31.93;;;11.65;;
67090;SDS011;54007;55.818;49.058;2023-02-03T10:57:34;47.20;;;17.53;;
67090;SDS011;54007;55.818;49.058;2023-02-03T11:02:42;30.68;;;13.98;;
67090;SDS011;54007;55.818;49.058;2023-02-03T11:05:18;32.80;;;14.00;;
67090;SDS011;54007;55.818;49.058;2023-02-03T11:07:36;39.13;;;15.72;;
67090;SDS011;54007;55.818;49.058;2023-02-03T11:10:02;40.48;;;17.40;;
67090;SDS011;54007;55.818;49.058;2023-02-03T11:12:28;35.67;;;14.30;;
67090;SDS011;54007;55.818;49.058;2023-02-03T11:14:58;32.60;;;13.15;;
67090;SDS011;54007;55.818;49.058;2023-02-03T11:17:29;29.70;;;12.65;;
67090;SDS011;54007;55.818;49.058;2023-02-03T11:20:02;35.27;;;13.20;;
67090;SDS011;54007;55.818;49.058;2023-02-03T11:24:53;29.85;;;12.30;;
67090;SDS011;54007;55.818;49.058;2023-02-03T11:27:19;31.67;;;11.93;;
67090;SDS011;54007;55.818;49.058;2023-02-03T11:29:45;29.15;;;12.55;;
67090;SDS011;54007;55.818;49.058;2023-02-03T11:32:18;34.83;;;14.10;;
67090;SDS011;54007;55.818;49.058;2023-02-03T11:37:24;30.50;;;9.95;;
67090;SDS011;54007;55.818;49.058;2023-02-03T11:39:50;31.20;;;11.65;;
67090;SDS011;54007;55.818;49.058;2023-02-03T11:42:22;33.70;;;12.18;;
67090;SDS011;54007;55.818;49.058;2023-02-03T11:44:47;31.85;;;10.63;;
67090;SDS011;54007;55.818;49.058;2023-02-03T11:47:13;34.38;;;12.20;;
67090;SDS011;54007;55.818;49.058;2023-02-03T11:49:43;34.20;;;14.05;;
67090;SDS011;54007;55.818;49.058;2023-02-03T11:52:11;31.30;;;11.90;;
67090;SDS011;54007;55.818;49.058;2023-02-03T11:54:44;35.28;;;13.62;;
67090;SDS011;54007;55.818;49.058;2023-02-03T11:59:37;34.75;;;12.80;;
67090;SDS011;54007;55.818;49.058;2023-02-03T12:12:13;33.08;;;13.62;;
67090;SDS011;54007;55.818;49.058;2023-02-03T12:22:14;33.38;;;12.93;;
67090;SDS011;54007;55.818;49.058;2023-02-03T12:24:43;29.53;;;11.90;;
67090;SDS011;54007;55.818;49.058;2023-02-03T12:29:33;30.62;;;12.65;;
67090;SDS011;54007;55.818;49.058;2023-02-03T13:00:03;32.20;;;13.22;;
67090;SDS011;54007;55.818;49.058;2023-02-03T13:02:31;33.80;;;14.10;;
67090;SDS011;54007;55.818;49.058;2023-02-03T13:05:04;37.48;;;12.25;;
67090;SDS011;54007;55.818;49.058;2023-02-03T13:07:39;31.50;;;13.78;;
67090;SDS011;54007;55.818;49.058;2023-02-03T13:10:05;32.15;;;12.18;;
67090;SDS011;54007;55.818;49.058;2023-02-03T13:12:37;32.13;;;13.50;;
67090;SDS011;54007;55.818;49.058;2023-02-03T13:20:44;34.23;;;13.00;;
67090;SDS011;54007;55.818;49.058;2023-02-03T13:22:42;31.68;;;13.20;;
67090;SDS011;54007;55.818;49.058;2023-02-03T13:25:14;29.00;;;11.08;;
67090;SDS011;54007;55.818;49.058;2023-02-03T13:35:35;37.57;;;13.33;;
67090;SDS011;54007;55.818;49.058;2023-02-03T13:40:49;33.92;;;13.03;;
67090;SDS011;54007;55.818;49.058;2023-02-03T13:43:21;35.27;;;13.90;;
67090;SDS011;54007;55.818;49.058;2023-02-03T13:45:48;34.08;;;12.33;;
67090;SDS011;54007;55.818;49.058;2023-02-03T13:50:39;38.63;;;13.62;;
67090;SDS011;54007;55.818;49.058;2023-02-03T13:53:15;39.60;;;13.70;;
67090;SDS011;54007;55.818;49.058;2023-02-03T13:55:41;36.25;;;13.28;;
67090;SDS011;54007;55.818;49.058;2023-02-03T13:58:06;37.42;;;12.73;;
67090;SDS011;54007;55.818;49.058;2023-02-03T14:03:15;40.23;;;13.75;;
67090;SDS011;54007;55.818;49.058;2023-02-03T14:05:44;38.35;;;12.58;;
67090;SDS011;54007;55.818;49.058;2023-02-03T15:06:42;37.60;;;14.20;;
67090;SDS011;54007;55.818;49.058;2023-02-03T15:09:21;40.35;;;14.85;;
67090;SDS011;54007;55.818;49.058;2023-02-03T15:11:45;39.13;;;14.38;;
67090;SDS011;54007;55.818;49.058;2023-02-03T15:16:39;45.55;;;16.35;;
67090;SDS011;54007;55.818;49.058;2023-02-03T15:19:13;41.00;;;14.83;;
67090;SDS011;54007;55.818;49.058;2023-02-03T15:21:31;32.30;;;13.23;;
67090;SDS011;54007;55.818;49.058;2023-02-03T15:23:57;42.62;;;15.78;;
67090;SDS011;54007;55.818;49.058;2023-02-03T15:26:23;42.70;;;16.67;;
67090;SDS011;54007;55.818;49.058;2023-02-03T15:28:58;36.20;;;15.48;;
67090;SDS011;54007;55.818;49.058;2023-02-03T15:31:25;36.10;;;14.15;;
67090;SDS011;54007;55.818;49.058;2023-02-03T15:33:49;38.97;;;15.17;;
67090;SDS011;54007;55.818;49.058;2023-02-03T15:36:19;41.98;;;14.28;;
67090;SDS011;54007;55.818;49.058;2023-02-03T15:38:46;33.38;;;13.80;;
67090;SDS011;54007;55.818;49.058;2023-02-03T15:41:13;40.77;;;15.40;;
67090;SDS011;54007;55.818;49.058;2023-02-03T15:43:37;47.88;;;17.80;;
67090;SDS011;54007;55.818;49.058;2023-02-03T15:46:13;48.08;;;16.32;;
67090;SDS011;54007;55.818;49.058;2023-02-03T15:48:38;44.48;;;16.40;;
67090;SDS011;54007;55.818;49.058;2023-02-03T15:51:04;39.70;;;15.30;;
67090;SDS011;54007;55.818;49.058;2023-02-03T15:53:29;32.90;;;13.50;;
67090;SDS011;54007;55.818;49.058;2023-02-03T15:55:55;34.55;;;11.57;;
67090;SDS011;54007;55.818;49.058;2023-02-03T15:58:23;33.73;;;12.25;;
67090;SDS011;54007;55.818;49.058;2023-02-03T16:00:52;37.43;;;12.47;;
67090;SDS011;54007;55.818;49.058;2023-02-03T16:03:18;33.45;;;13.08;;
67090;SDS011;54007;55.818;49.058;2023-02-03T16:05:43;36.17;;;13.20;;
67090;SDS011;54007;55.818;49.058;2023-02-03T16:08:27;35.47;;;12.37;;
67090;SDS011;54007;55.818;49.058;2023-02-03T16:10:50;36.00;;;12.65;;
67090;SDS011;54007;55.818;49.058;2023-02-03T16:13:23;36.33;;;13.15;;
67090;SDS011;54007;55.818;49.058;2023-02-03T16:16:04;33.20;;;12.15;;
67090;SDS011;54007;55.818;49.058;2023-02-03T16:18:33;42.27;;;13.70;;
67090;SDS011;54007;55.818;49.058;2023-02-03T16:21:05;40.38;;;13.55;;
67090;SDS011;54007;55.818;49.058;2023-02-03T16:23:31;38.40;;;12.47;;
67090;SDS011;54007;55.818;49.058;2023-02-03T16:26:14;38.45;;;13.03;;
67090;SDS011;54007;55.818;49.058;2023-02-03T16:28:32;40.80;;;12.85;;
67090;SDS011;54007;55.818;49.058;2023-02-03T16:31:19;36.37;;;12.80;;
67090;SDS011;54007;55.818;49.058;2023-02-03T16:34:24;34.98;;;12.63;;
67090;SDS011;54007;55.818;49.058;2023-02-03T16:36:47;39.10;;;12.58;;
67090;SDS011;54007;55.818;49.058;2023-02-03T16:39:31;39.53;;;13.65;;
67090;SDS011;54007;55.818;49.058;2023-02-03T16:42:16;36.25;;;12.78;;
67090;SDS011;54007;55.818;49.058;2023-02-03T16:45:00;38.30;;;14.23;;
67090;SDS011;54007;55.818;49.058;2023-02-03T16:47:44;43.55;;;15.23;;
67090;SDS011;54007;55.818;49.058;2023-02-03T16:50:28;40.10;;;15.00;;
67090;SDS011;54007;55.818;49.058;2023-02-03T16:53:14;44.33;;;15.30;;
67090;SDS011;54007;55.818;49.058;2023-02-03T16:55:38;49.88;;;18.55;;
67090;SDS011;54007;55.818;49.058;2023-02-03T16:58:04;56.70;;;20.00;;
67090;SDS011;54007;55.818;49.058;2023-02-03T17:00:30;45.40;;;16.90;;
67090;SDS011;54007;55.818;49.058;2023-02-03T17:02:56;43.28;;;17.80;;
67090;SDS011;54007;55.818;49.058;2023-02-03T17:05:22;61.80;;;23.20;;
67090;SDS011;54007;55.818;49.058;2023-02-03T17:07:48;53.80;;;21.35;;
67090;SDS011;54007;55.818;49.058;2023-02-03T17:10:14;47.23;;;17.15;;
67090;SDS011;54007;55.818;49.058;2023-02-03T17:12:40;49.47;;;20.20;;
67090;SDS011;54007;55.818;49.058;2023-02-03T17:15:05;54.70;;;20.15;;
67090;SDS011;54007;55.818;49.058;2023-02-03T17:17:31;54.73;;;21.55;;
67090;SDS011;54007;55.818;49.058;2023-02-03T17:19:57;39.73;;;13.70;;
67090;SDS011;54007;55.818;49.058;2023-02-03T17:22:24;33.90;;;13.50;;
67090;SDS011;54007;55.818;49.058;2023-02-03T17:24:49;39.65;;;14.28;;
67090;SDS011;54007;55.818;49.058;2023-02-03T17:27:15;34.37;;;12.60;;
67090;SDS011;54007;55.818;49.058;2023-02-03T17:29:41;36.70;;;12.78;;
67090;SDS011;54007;55.818;49.058;2023-02-03T17:32:07;41.18;;;14.47;;
67090;SDS011;54007;55.818;49.058;2023-02-03T17:34:37;36.85;;;12.40;;
67090;SDS011;54007;55.818;49.058;2023-02-03T17:37:08;32.65;;;13.22;;
67090;SDS011;54007;55.818;49.058;2023-02-03T17:39:34;37.45;;;11.85;;
67090;SDS011;54007;55.818;49.058;2023-02-03T17:42:00;33.60;;;12.37;;
67090;SDS011;54007;55.818;49.058;2023-02-03T17:44:26;33.98;;;12.85;;
67090;SDS011;54007;55.818;49.058;2023-02-03T17:46:52;35.03;;;12.28;;
